Time;durP1;ratioP1;P1;durP2;ratioP2;P2;SDS_P1;SDS_P2;PMS_P1;PMS_P2;Temp;Humidity;BMP_temperature;BMP_pressure;BME280_temperature;BME280_humidity;BME280_pressure;Samples;Min_cycle;Max_cycle;Signal;HPM_P1;HPM_P2
2021/11/21 00:01:59;;;;;;;13.43;2.83;;;6.70;96.30;;;;;;5029391;28;20045;-77
2021/11/21 00:04:25;;;;;;;15.40;2.45;;;6.70;96.40;;;;;;5030864;28;20029;-78
2021/11/21 00:06:51;;;;;;;9.45;2.70;;;6.70;96.30;;;;;;5030679;28;20033;-78
2021/11/21 00:09:17;;;;;;;11.07;3.47;;;6.70;96.40;;;;;;5030767;28;20026;-80
2021/11/21 00:11:43;;;;;;;14.95;2.95;;;6.60;96.40;;;;;;5012748;28;20042;-77
2021/11/21 00:14:09;;;;;;;12.10;3.30;;;6.60;96.40;;;;;;5029119;28;20471;-78
2021/11/21 00:16:35;;;;;;;;;;;6.60;96.40;;;;;;5013295;28;20481;-77
2021/11/21 00:19:01;;;;;;;11.35;3.35;;;6.60;96.50;;;;;;5030595;28;20248;-79
2021/11/21 00:21:28;;;;;;;12.15;3.35;;;6.60;96.40;;;;;;5031337;28;20038;-78
2021/11/21 00:23:54;;;;;;;9.50;2.72;;;6.60;96.50;;;;;;5034149;28;20060;-78
2021/11/21 00:26:20;;;;;;;16.38;3.10;;;6.60;96.60;;;;;;5016932;28;20041;-78
2021/11/21 00:28:46;;;;;;;11.07;2.70;;;6.60;96.60;;;;;;5033151;28;20459;-78
2021/11/21 00:31:11;;;;;;;8.73;2.30;;;6.60;96.50;;;;;;5034251;28;20091;-78
2021/11/21 00:33:37;;;;;;;11.57;2.25;;;6.60;96.50;;;;;;5034198;28;20060;-76
2021/11/21 00:36:04;;;;;;;14.07;2.58;;;6.60;96.50;;;;;;5016265;28;20103;-79
2021/11/21 00:38:29;;;;;;;10.48;2.50;;;6.60;96.50;;;;;;5032676;28;20048;-77
2021/11/21 00:40:55;;;;;;;5.55;2.25;;;6.60;96.50;;;;;;5032224;28;20253;-78
2021/11/21 00:43:21;;;;;;;13.50;2.47;;;6.60;96.50;;;;;;5015994;28;20161;-79
2021/11/21 00:45:48;;;;;;;10.23;2.15;;;6.60;96.50;;;;;;5032497;28;20520;-79
2021/11/21 00:48:23;;;;;;;11.93;2.00;;;6.60;96.50;;;;;;5032697;28;20040;-78
2021/11/21 00:50:53;;;;;;;10.77;2.05;;;6.60;96.50;;;;;;5032733;28;20032;-79
2021/11/21 00:53:19;;;;;;;12.45;2.63;;;6.60;96.50;;;;;;5033800;28;20445;-79
2021/11/21 00:55:52;;;;;;;8.05;2.22;;;6.50;96.50;;;;;;5032463;28;20055;-78
2021/11/21 00:58:17;;;;;;;14.52;2.50;;;6.50;96.50;;;;;;5032711;28;20037;-79
2021/11/21 01:00:47;;;;;;;9.93;2.30;;;6.50;96.50;;;;;;5032046;28;20062;-78
2021/11/21 01:03:15;;;;;;;10.27;2.55;;;6.50;96.50;;;;;;5033516;28;20388;-77
2021/11/21 01:05:46;;;;;;;9.23;1.90;;;6.50;96.50;;;;;;5032256;28;20045;-77
2021/11/21 01:08:12;;;;;;;8.93;1.95;;;6.50;96.60;;;;;;5032435;28;20026;-78
2021/11/21 01:10:39;;;;;;;12.27;2.30;;;6.50;96.50;;;;;;5033743;28;20233;-77
2021/11/21 01:13:05;;;;;;;6.95;1.90;;;6.40;96.60;;;;;;5033578;28;20038;-78
2021/11/21 01:15:33;;;;;;;10.35;1.80;;;6.40;96.60;;;;;;5015929;28;20034;-78
2021/11/21 01:18:00;;;;;;;10.43;2.28;;;6.40;96.50;;;;;;5033605;28;20053;-78
2021/11/21 01:20:28;;;;;;;13.32;2.13;;;6.40;96.50;;;;;;5033522;28;20079;-77
2021/11/21 01:22:54;;;;;;;11.77;2.20;;;6.40;96.60;;;;;;5033296;28;20509;-78
2021/11/21 01:25:21;;;;;;;12.07;2.75;;;6.40;96.60;;;;;;5015703;28;20025;-78
2021/11/21 01:27:47;;;;;;;10.77;2.72;;;6.40;96.50;;;;;;5033286;28;20383;-78
2021/11/21 01:30:18;;;;;;;11.27;2.28;;;6.40;96.50;;;;;;5031966;28;20022;-77
2021/11/21 01:32:44;;;;;;;8.23;2.25;;;6.40;96.50;;;;;;5030820;28;20037;-78
2021/11/21 01:35:10;;;;;;;;;;;6.40;96.50;;;;;;5032251;28;20088;-79
2021/11/21 01:37:37;;;;;;;7.47;1.50;;;6.30;96.50;;;;;;5031143;28;20379;-77
2021/11/21 01:40:05;;;;;;;12.75;1.92;;;6.30;96.40;;;;;;5033053;28;20026;-79
2021/11/21 01:42:31;;;;;;;12.73;1.98;;;6.30;96.50;;;;;;5032963;28;20099;-78
2021/11/21 01:44:57;;;;;;;11.32;2.17;;;6.30;96.50;;;;;;5033075;28;20419;-77
2021/11/21 01:47:22;;;;;;;10.68;2.35;;;6.30;96.50;;;;;;5031692;28;20075;-77
2021/11/21 01:49:49;;;;;;;9.48;2.22;;;6.20;96.40;;;;;;5031609;28;20505;-77
2021/11/21 01:52:14;;;;;;;9.90;1.75;;;6.20;96.40;;;;;;5031566;28;20040;-77
2021/11/21 01:54:40;;;;;;;11.32;1.85;;;6.20;96.50;;;;;;5032936;28;20021;-77
2021/11/21 01:57:06;;;;;;;13.45;1.80;;;6.20;96.50;;;;;;5031679;28;20120;-76
2021/11/21 01:59:32;;;;;;;17.85;2.42;;;6.20;96.50;;;;;;5032669;28;20049;-77
2021/11/21 02:01:57;;;;;;;11.35;2.15;;;6.20;96.50;;;;;;5031376;28;20180;-77
2021/11/21 02:04:23;;;;;;;8.07;1.75;;;6.20;96.50;;;;;;5031737;28;20472;-77
2021/11/21 02:06:49;;;;;;;8.20;1.80;;;6.20;96.50;;;;;;5031560;28;20040;-77
2021/11/21 02:09:15;;;;;;;6.85;1.65;;;6.20;96.50;;;;;;5014947;28;20021;-77
2021/11/21 02:11:41;;;;;;;14.25;2.00;;;6.20;96.60;;;;;;5031280;28;20037;-76
2021/11/21 02:14:06;;;;;;;14.25;1.70;;;6.20;96.60;;;;;;5032937;28;20025;-76
2021/11/21 02:16:33;;;;;;;10.73;2.45;;;6.20;96.50;;;;;;5015033;28;20041;-77
2021/11/21 02:18:59;;;;;;;9.63;1.77;;;6.20;96.50;;;;;;5031337;28;20395;-76
2021/11/21 02:21:26;;;;;;;7.53;1.67;;;6.10;96.50;;;;;;5031091;28;20105;-77
2021/11/21 02:23:52;;;;;;;7.40;1.70;;;6.10;96.50;;;;;;5014787;28;20458;-77
2021/11/21 02:26:18;;;;;;;8.43;1.70;;;6.10;96.50;;;;;;5014785;28;20480;-78
2021/11/21 02:28:47;;;;;;;10.63;1.48;;;6.00;96.40;;;;;;5032378;28;20029;-77
2021/11/21 02:31:13;;;;;;;12.63;1.70;;;6.10;96.50;;;;;;5032141;28;20036;-76
2021/11/21 02:33:40;;;;;;;10.20;2.20;;;6.10;96.50;;;;;;5030812;28;20033;-77
2021/11/21 02:36:07;;;;;;;7.90;1.40;;;6.00;96.40;;;;;;5014373;28;20029;-77
2021/11/21 02:38:33;;;;;;;7.30;1.50;;;6.00;96.40;;;;;;5032069;28;20468;-76
2021/11/21 02:41:05;;;;;;;12.23;2.25;;;6.00;96.40;;;;;;5030831;28;20037;-77
2021/11/21 02:43:31;;;;;;;12.10;2.08;;;6.00;96.40;;;;;;5030836;28;20098;-78
2021/11/21 02:45:57;;;;;;;12.00;2.70;;;6.00;96.40;;;;;;5030546;28;20468;-77
2021/11/21 02:48:27;;;;;;;8.02;1.60;;;6.00;96.40;;;;;;5030678;28;20029;-77
2021/11/21 02:50:54;;;;;;;12.82;2.03;;;6.00;96.40;;;;;;5031832;28;20052;-78
2021/11/21 02:53:23;;;;;;;9.45;2.15;;;5.90;96.40;;;;;;5031759;28;20033;-76
2021/11/21 02:55:56;;;;;;;7.97;1.75;;;5.90;96.40;;;;;;5030637;28;20120;-77
2021/11/21 02:58:23;;;;;;;9.05;1.92;;;5.90;96.40;;;;;;5030637;28;20419;-77
2021/11/21 03:00:50;;;;;;;13.07;2.05;;;5.90;96.40;;;;;;5030254;28;20054;-77
2021/11/21 03:03:16;;;;;;;9.32;1.85;;;5.90;96.30;;;;;;5030263;28;20533;-77
2021/11/21 03:05:42;;;;;;;8.70;1.52;;;5.90;96.40;;;;;;5031598;28;20022;-77
2021/11/21 03:08:08;;;;;;;;;;;5.80;96.30;;;;;;5032029;28;20029;-78
2021/11/21 03:10:34;;;;;;;8.15;1.88;;;5.80;96.30;;;;;;5030365;28;19967;-77
2021/11/21 03:13:02;;;;;;;9.63;1.50;;;5.80;96.20;;;;;;5013850;28;20055;-77
2021/11/21 03:15:28;;;;;;;13.23;1.70;;;5.80;96.20;;;;;;5013744;28;20045;-78
2021/11/21 03:17:54;;;;;;;12.90;1.85;;;5.80;96.30;;;;;;5030394;28;20030;-77
2021/11/21 03:20:29;;;;;;;11.18;1.92;;;5.70;96.30;;;;;;5031274;28;20036;-76
2021/11/21 03:22:57;;;;;;;14.82;1.60;;;5.70;96.30;;;;;;5031381;28;20032;-77
2021/11/21 03:25:23;;;;;;;9.23;1.80;;;5.70;96.30;;;;;;5031237;28;20117;-78
2021/11/21 03:27:49;;;;;;;7.05;1.60;;;5.60;96.30;;;;;;5029850;28;20113;-77
2021/11/21 03:30:19;;;;;;;10.43;2.05;;;5.60;96.30;;;;;;5031204;28;20035;-77
2021/11/21 03:32:46;;;;;;;8.43;1.40;;;5.60;96.30;;;;;;5031084;28;20029;-76
2021/11/21 03:35:14;;;;;;;7.53;1.60;;;5.60;96.40;;;;;;5029617;28;20025;-77
2021/11/21 03:37:40;;;;;;;9.98;1.50;;;5.70;96.40;;;;;;5031169;28;20029;-77
2021/11/21 03:40:13;;;;;;;19.42;2.33;;;5.60;96.40;;;;;;5029692;28;20083;-76
2021/11/21 03:42:40;;;;;;;9.77;1.70;;;5.60;96.30;;;;;;5031110;28;20025;-76
2021/11/21 03:45:07;;;;;;;15.20;1.85;;;5.60;96.30;;;;;;4997373;28;20049;-77
2021/11/21 03:47:33;;;;;;;10.10;2.35;;;5.60;96.40;;;;;;5031072;28;20096;-76
2021/11/21 03:49:59;;;;;;;10.25;2.15;;;5.50;96.60;;;;;;5031080;28;20112;-76
2021/11/21 03:52:25;;;;;;;9.43;1.58;;;5.50;96.40;;;;;;5014503;28;20033;-75
2021/11/21 03:54:51;;;;;;;12.43;1.73;;;5.50;96.30;;;;;;5032335;28;20082;-76
2021/11/21 03:57:16;;;;;;;9.30;1.60;;;5.50;96.30;;;;;;5017342;28;20476;-76
2021/11/21 03:59:42;;;;;;;11.55;2.00;;;5.50;96.30;;;;;;5034362;28;20049;-75
2021/11/21 04:02:08;;;;;;;8.07;1.60;;;5.50;96.20;;;;;;5034950;28;20544;-77
2021/11/21 04:04:34;;;;;;;9.52;2.20;;;5.40;96.20;;;;;;5035050;28;20026;-78
2021/11/21 04:07:00;;;;;;;9.43;1.80;;;5.30;96.20;;;;;;5033831;28;20034;-77
2021/11/21 04:09:25;;;;;;;8.05;1.90;;;5.30;96.20;;;;;;5035051;28;20100;-78
2021/11/21 04:11:52;;;;;;;13.35;2.00;;;5.30;96.20;;;;;;5034882;28;20033;-78
2021/11/21 04:14:19;;;;;;;14.20;2.08;;;5.20;96.10;;;;;;5033546;28;20041;-77
2021/11/21 04:16:45;;;;;;;16.08;1.85;;;5.20;96.20;;;;;;5034791;28;20032;-76
2021/11/21 04:19:11;;;;;;;12.60;1.77;;;5.10;96.20;;;;;;5034944;28;20399;-76
2021/11/21 04:21:38;;;;;;;6.82;1.20;;;5.10;96.20;;;;;;5033334;28;20032;-77
2021/11/21 04:24:05;;;;;;;5.95;1.20;;;5.10;96.20;;;;;;5034720;28;20029;-77
2021/11/21 04:26:32;;;;;;;6.82;1.48;;;5.00;96.20;;;;;;5034640;28;20104;-77
2021/11/21 04:28:57;;;;;;;8.55;1.50;;;5.00;96.30;;;;;;5034700;28;20018;-77
2021/11/21 04:31:23;;;;;;;9.48;1.70;;;5.00;96.30;;;;;;5033426;28;20037;-77
2021/11/21 04:33:49;;;;;;;12.13;2.00;;;5.00;96.30;;;;;;5034499;28;20486;-77
2021/11/21 04:36:15;;;;;;;9.93;1.48;;;5.00;96.30;;;;;;5033312;28;20396;-77
2021/11/21 04:38:40;;;;;;;18.67;1.75;;;5.00;96.30;;;;;;5016809;28;20395;-76
2021/11/21 04:41:06;;;;;;;13.00;1.83;;;4.90;96.30;;;;;;5034499;28;20060;-77
2021/11/21 04:43:32;;;;;;;10.32;1.75;;;4.90;96.30;;;;;;5034280;28;20464;-78
2021/11/21 04:45:58;;;;;;;13.43;2.38;;;4.90;96.30;;;;;;5034242;28;20038;-77
2021/11/21 04:48:24;;;;;;;11.23;1.52;;;4.90;96.30;;;;;;5034223;28;20144;-77
2021/11/21 04:50:50;;;;;;;;;;;4.90;96.30;;;;;;5034713;28;20033;-76
2021/11/21 04:53:16;;;;;;;9.68;2.00;;;4.90;96.30;;;;;;5032751;28;19995;-77
2021/11/21 04:55:42;;;;;;;11.65;1.90;;;4.90;96.30;;;;;;5034141;28;20117;-78
2021/11/21 04:58:07;;;;;;;17.20;2.08;;;4.80;96.20;;;;;;5034056;28;20041;-77
2021/11/21 05:00:34;;;;;;;10.80;1.95;;;4.80;96.20;;;;;;5033752;28;20132;-76
2021/11/21 05:02:59;;;;;;;16.00;2.65;;;4.80;96.30;;;;;;5032624;28;20037;-77
2021/11/21 05:05:26;;;;;;;12.35;2.00;;;4.80;96.30;;;;;;5016171;28;20037;-79
2021/11/21 05:07:53;;;;;;;11.95;1.70;;;4.80;96.30;;;;;;5032402;28;20075;-76
2021/11/21 05:10:20;;;;;;;13.40;1.85;;;4.80;96.40;;;;;;5032491;28;20025;-77
2021/11/21 05:12:46;;;;;;;10.57;2.03;;;4.80;96.40;;;;;;5016025;28;20056;-77
2021/11/21 05:15:16;;;;;;;9.63;2.15;;;4.80;96.40;;;;;;5016127;28;20487;-77
2021/11/21 05:17:45;;;;;;;16.73;1.83;;;4.80;96.50;;;;;;5033684;28;20025;-75
2021/11/21 05:20:14;;;;;;;11.00;2.00;;;4.80;96.50;;;;;;5032399;28;20384;-76
2021/11/21 05:22:39;;;;;;;12.57;1.70;;;4.80;96.50;;;;;;5033576;28;20022;-77
2021/11/21 05:25:06;;;;;;;10.27;1.67;;;4.80;96.50;;;;;;5033625;28;20032;-76
2021/11/21 05:27:32;;;;;;;21.25;2.00;;;4.80;96.50;;;;;;5033405;28;20037;-77
2021/11/21 05:29:58;;;;;;;15.38;1.67;;;4.90;96.60;;;;;;5033479;28;20025;-78
2021/11/21 05:32:24;;;;;;;15.55;1.38;;;4.90;96.60;;;;;;5015539;28;20377;-77
2021/11/21 05:34:51;;;;;;;11.75;1.88;;;4.90;96.60;;;;;;5033422;28;20026;-77
2021/11/21 05:37:18;;;;;;;11.63;1.80;;;5.00;96.60;;;;;;5033543;28;20021;-76
2021/11/21 05:39:44;;;;;;;14.52;1.67;;;5.00;96.60;;;;;;4999246;28;20033;-77
2021/11/21 05:42:10;;;;;;;12.57;1.90;;;5.00;96.60;;;;;;5031697;28;20571;-77
2021/11/21 05:44:36;;;;;;;14.23;2.08;;;5.00;96.60;;;;;;5033202;28;20108;-77
2021/11/21 05:47:02;;;;;;;10.77;1.50;;;5.00;96.60;;;;;;5033363;28;20045;-78
2021/11/21 05:49:28;;;;;;;9.40;1.63;;;5.10;96.60;;;;;;5032034;28;20038;-78
2021/11/21 05:51:54;;;;;;;16.92;1.98;;;5.10;96.60;;;;;;5032968;28;20034;-77
2021/11/21 05:54:19;;;;;;;14.63;1.83;;;5.00;96.50;;;;;;5015186;28;20447;-77
2021/11/21 05:56:45;;;;;;;10.35;1.88;;;5.00;96.50;;;;;;5032986;28;20026;-78
2021/11/21 05:59:11;;;;;;;8.48;2.08;;;5.10;96.60;;;;;;5014985;28;20045;-78
2021/11/21 06:01:37;;;;;;;8.73;1.75;;;5.00;96.50;;;;;;5032736;28;20038;-78
2021/11/21 06:04:03;;;;;;;11.57;1.60;;;5.10;96.60;;;;;;5031718;28;20033;-78
2021/11/21 06:06:29;;;;;;;;;;;5.10;96.60;;;;;;5031861;28;20036;-79
2021/11/21 06:08:55;;;;;;;14.48;2.38;;;5.10;96.60;;;;;;5032716;28;19993;-77
2021/11/21 06:11:20;;;;;;;11.48;1.80;;;5.10;96.50;;;;;;5014995;28;20116;-78
2021/11/21 06:13:46;;;;;;;12.73;1.67;;;5.10;96.50;;;;;;5031261;28;20038;-77
2021/11/21 06:16:12;;;;;;;10.98;1.65;;;5.10;96.60;;;;;;5032632;28;20040;-77
2021/11/21 06:18:38;;;;;;;13.57;1.60;;;5.10;96.60;;;;;;5030951;28;20064;-76
2021/11/21 06:21:03;;;;;;;12.45;1.92;;;5.10;96.60;;;;;;5032386;28;20029;-78
2021/11/21 06:23:33;;;;;;;10.73;2.00;;;5.10;96.60;;;;;;5032381;28;20404;-77
2021/11/21 06:26:00;;;;;;;8.88;1.48;;;5.10;96.60;;;;;;5031103;28;20026;-77
2021/11/21 06:28:26;;;;;;;12.05;1.80;;;5.10;96.60;;;;;;5032389;28;20028;-77
2021/11/21 06:30:52;;;;;;;15.80;2.08;;;5.10;96.50;;;;;;5031105;28;20384;-78
2021/11/21 06:33:18;;;;;;;14.98;1.73;;;5.10;96.50;;;;;;5032264;28;20489;-77
2021/11/21 06:35:44;;;;;;;11.60;1.60;;;5.10;96.50;;;;;;5030897;28;20029;-77
2021/11/21 06:38:11;;;;;;;13.05;1.77;;;5.00;96.50;;;;;;5032146;28;20028;-77
2021/11/21 06:40:36;;;;;;;13.55;2.00;;;5.00;96.50;;;;;;5032017;28;20111;-77
2021/11/21 06:43:02;;;;;;;14.00;1.58;;;5.00;96.60;;;;;;5032065;28;20495;-77
2021/11/21 06:45:28;;;;;;;11.20;1.63;;;5.00;96.80;;;;;;5030874;28;20025;-77
2021/11/21 06:47:54;;;;;;;12.55;1.60;;;5.00;96.60;;;;;;5032148;28;20197;-77
2021/11/21 06:50:20;;;;;;;18.70;2.05;;;4.90;96.60;;;;;;5032070;28;20036;-77
2021/11/21 06:52:46;;;;;;;9.52;1.50;;;4.90;96.60;;;;;;5030604;28;20028;-77
2021/11/21 06:55:16;;;;;;;10.77;1.88;;;4.90;96.60;;;;;;5030751;28;20037;-78
2021/11/21 06:57:42;;;;;;;11.73;2.10;;;4.90;96.60;;;;;;5030745;28;20057;-77
2021/11/21 07:00:11;;;;;;;13.30;2.00;;;4.90;96.60;;;;;;5031621;28;20526;-77
2021/11/21 07:02:37;;;;;;;9.85;1.65;;;4.90;96.60;;;;;;5031618;28;20471;-78
2021/11/21 07:05:03;;;;;;;14.10;1.92;;;4.90;96.70;;;;;;5030562;28;20065;-77
2021/11/21 07:07:29;;;;;;;10.75;1.80;;;4.90;96.70;;;;;;5030270;28;20029;-78
2021/11/21 07:09:54;;;;;;;9.70;2.03;;;4.80;96.70;;;;;;5030377;28;20033;-77
2021/11/21 07:12:20;;;;;;;8.68;1.85;;;4.80;96.80;;;;;;5030251;28;20029;-78
2021/11/21 07:14:46;;;;;;;15.75;2.45;;;4.80;96.80;;;;;;5030269;28;20033;-78
2021/11/21 07:17:12;;;;;;;13.43;2.65;;;4.80;96.70;;;;;;5031699;28;20503;-77
2021/11/21 07:19:38;;;;;;;14.57;1.70;;;4.80;96.70;;;;;;5030262;28;20045;-77
2021/11/21 07:22:03;;;;;;;12.70;2.25;;;4.90;96.70;;;;;;5031353;28;20484;-77
2021/11/21 07:24:31;;;;;;;5.38;1.33;;;4.90;96.70;;;;;;5030249;28;20579;-76
2021/11/21 07:26:59;;;;;;;10.10;1.65;;;4.90;96.70;;;;;;5031420;28;20029;-77
2021/11/21 07:29:28;;;;;;;8.60;1.67;;;4.90;96.60;;;;;;5030250;28;20018;-77
2021/11/21 07:31:59;;;;;;;14.10;1.92;;;4.90;96.60;;;;;;5028983;28;20488;-78
2021/11/21 07:34:25;;;;;;;9.48;2.55;;;4.90;96.60;;;;;;5030035;28;20034;-78
2021/11/21 07:36:51;;;;;;;8.88;1.65;;;4.90;96.60;;;;;;5031295;28;20144;-78
2021/11/21 07:39:17;;;;;;;11.13;1.90;;;4.90;96.50;;;;;;5031252;28;20033;-79
2021/11/21 07:41:43;;;;;;;9.80;1.90;;;4.90;96.50;;;;;;5029861;28;20029;-78
2021/11/21 07:44:09;;;;;;;11.68;2.50;;;4.90;96.50;;;;;;5029941;28;20104;-78
2021/11/21 07:46:35;;;;;;;15.68;3.20;;;4.80;96.50;;;;;;5031019;28;20800;-78
2021/11/21 07:49:01;;;;;;;12.15;2.63;;;4.80;96.50;;;;;;5029823;28;20035;-77
2021/11/21 07:51:27;;;;;;;12.25;2.35;;;4.80;96.50;;;;;;5030908;28;20164;-78
2021/11/21 07:53:53;;;;;;;12.02;1.90;;;4.80;96.50;;;;;;5029860;28;20037;-78
2021/11/21 07:56:20;;;;;;;14.48;2.38;;;4.80;96.50;;;;;;5031066;28;20029;-77
2021/11/21 07:58:45;;;;;;;9.80;1.45;;;4.80;96.40;;;;;;5013171;28;20030;-78
2021/11/21 08:01:12;;;;;;;10.02;1.88;;;4.70;96.40;;;;;;5030965;28;20087;-77
2021/11/21 08:03:38;;;;;;;12.45;2.50;;;4.70;96.40;;;;;;5030904;28;20059;-77
2021/11/21 08:06:04;;;;;;;12.73;1.88;;;4.70;96.40;;;;;;5030895;28;20064;-79
2021/11/21 08:08:30;;;;;;;11.27;1.90;;;4.60;96.40;;;;;;5030877;28;20029;-79
2021/11/21 08:10:56;;;;;;;8.02;1.70;;;4.60;96.40;;;;;;5029477;28;20036;-77
2021/11/21 08:13:24;;;;;;;13.05;1.98;;;4.50;96.40;;;;;;5030703;28;20387;-78
2021/11/21 08:15:49;;;;;;;10.75;2.47;;;4.50;96.50;;;;;;5029685;28;20021;-77
2021/11/21 08:18:15;;;;;;;9.07;2.20;;;4.40;96.60;;;;;;5029502;28;20137;-76
2021/11/21 08:20:41;;;;;;;11.50;2.72;;;4.40;96.60;;;;;;5030662;28;20037;-77
2021/11/21 08:23:07;;;;;;;9.60;2.45;;;4.30;96.60;;;;;;5029107;28;20033;-77
2021/11/21 08:25:33;;;;;;;14.35;2.42;;;4.30;96.80;;;;;;5029296;28;20099;-77
2021/11/21 08:27:58;;;;;;;13.90;2.85;;;4.30;96.90;;;;;;5012645;28;20846;-76
2021/11/21 08:30:24;;;;;;;13.07;2.35;;;4.40;97.00;;;;;;5030810;28;20038;-77
2021/11/21 08:32:51;;;;;;;14.88;2.22;;;4.50;97.00;;;;;;5030680;28;20029;-77
2021/11/21 08:35:18;;;;;;;11.00;2.33;;;4.50;97.10;;;;;;5029409;28;20026;-77
2021/11/21 08:37:44;;;;;;;8.57;2.05;;;4.50;97.20;;;;;;5030647;28;20052;-78
2021/11/21 08:40:11;;;;;;;11.65;2.03;;;4.60;97.30;;;;;;5030558;28;20030;-77
2021/11/21 08:42:37;;;;;;;11.38;2.03;;;4.70;97.40;;;;;;5031511;28;20038;-77
2021/11/21 08:45:05;;;;;;;15.00;1.88;;;4.80;97.40;;;;;;5016315;28;20061;-77
2021/11/21 08:47:31;;;;;;;11.52;1.58;;;4.90;97.40;;;;;;5034109;28;20025;-78
2021/11/21 08:49:57;;;;;;;6.13;1.58;;;5.00;97.40;;;;;;5034038;28;20051;-78
2021/11/21 08:52:22;;;;;;;13.85;2.15;;;5.10;97.40;;;;;;5016208;28;20084;-78
2021/11/21 08:54:48;;;;;;;9.40;1.33;;;5.20;97.50;;;;;;5032768;28;20034;-77
2021/11/21 08:57:14;;;;;;;10.60;1.75;;;5.40;97.60;;;;;;5032835;28;20034;-78
2021/11/21 08:59:40;;;;;;;6.80;1.60;;;5.60;98.40;;;;;;5033753;28;20049;-77
2021/11/21 09:02:05;;;;;;;7.60;1.73;;;6.30;99.60;;;;;;5033402;28;20064;-77
2021/11/21 09:04:31;;;;;;;7.10;1.75;;;7.30;99.90;;;;;;5032656;28;20388;-78
2021/11/21 09:06:57;;;;;;;9.45;1.23;;;8.30;99.90;;;;;;5032641;28;20109;-77
2021/11/21 09:09:23;;;;;;;9.30;1.65;;;9.10;99.40;;;;;;5016062;28;20092;-78
2021/11/21 09:11:49;;;;;;;7.97;1.60;;;9.90;98.90;;;;;;5033593;28;20037;-77
2021/11/21 09:14:14;;;;;;;6.43;1.60;;;10.60;98.30;;;;;;5033743;28;20056;-78
2021/11/21 09:16:41;;;;;;;8.65;2.13;;;11.10;97.50;;;;;;5033629;28;20104;-77
2021/11/21 09:19:07;;;;;;;9.60;1.92;;;11.40;96.40;;;;;;5033342;28;20025;-78
2021/11/21 09:21:33;;;;;;;9.52;2.28;;;11.50;96.10;;;;;;5031825;28;20072;-78
2021/11/21 09:23:59;;;;;;;14.48;3.00;;;11.70;95.70;;;;;;5033088;28;20025;-78
2021/11/21 09:26:29;;;;;;;7.05;2.10;;;11.80;95.10;;;;;;5015432;28;20030;-78
2021/11/21 09:28:55;;;;;;;10.63;2.38;;;11.70;94.30;;;;;;5031942;28;20040;-79
2021/11/21 09:31:21;;;;;;;6.30;1.63;;;11.70;94.60;;;;;;5032917;28;20484;-77
2021/11/21 09:33:47;;;;;;;7.82;1.50;;;12.00;94.80;;;;;;5033092;28;20038;-77
2021/11/21 09:36:13;;;;;;;10.40;2.22;;;12.40;94.80;;;;;;5032835;28;20040;-78
2021/11/21 09:38:38;;;;;;;10.30;1.70;;;12.80;95.00;;;;;;5031656;28;20129;-77
2021/11/21 09:41:04;;;;;;;7.40;1.70;;;13.30;94.40;;;;;;5015300;28;20033;-77
2021/11/21 09:43:31;;;;;;;79.70;4.32;;;13.70;93.80;;;;;;5031608;28;20408;-77
2021/11/21 09:45:56;;;;;;;4.70;1.42;;;14.00;93.60;;;;;;5031598;28;20026;-77
2021/11/21 09:48:32;;;;;;;3.47;0.95;;;14.40;93.10;;;;;;5032746;28;20033;-77
2021/11/21 09:50:58;;;;;;;7.32;1.48;;;14.90;92.40;;;;;;5032713;28;20476;-78
2021/11/21 09:53:24;;;;;;;4.40;1.02;;;15.30;91.80;;;;;;5031926;28;20048;-77
2021/11/21 09:55:49;;;;;;;7.80;1.67;;;15.80;91.20;;;;;;5030886;28;20373;-77
2021/11/21 09:58:15;;;;;;;12.18;1.50;;;16.20;90.90;;;;;;5032509;28;20091;-77
2021/11/21 10:00:41;;;;;;;7.70;1.42;;;16.50;90.40;;;;;;5032142;28;20045;-77
2021/11/21 10:03:09;;;;;;;7.72;0.88;;;16.80;89.50;;;;;;5032524;28;20117;-77
2021/11/21 10:05:39;;;;;;;7.68;1.17;;;16.90;87.50;;;;;;5032594;28;20044;-77
2021/11/21 10:08:05;;;;;;;7.80;1.10;;;16.80;86.40;;;;;;5031369;28;20021;-75
2021/11/21 10:10:44;;;;;;;6.10;1.50;;;16.60;85.80;;;;;;5030989;28;20032;-77
2021/11/21 10:13:28;;;;;;;6.57;1.30;;;16.40;84.90;;;;;;5032261;28;20048;-78
2021/11/21 10:15:55;;;;;;;4.75;0.95;;;16.30;84.70;;;;;;5032434;28;20026;-78
2021/11/21 10:18:22;;;;;;;8.65;2.03;;;16.30;85.70;;;;;;5032223;28;20022;-77
2021/11/21 10:20:48;;;;;;;9.93;2.50;;;16.50;84.80;;;;;;5030691;28;20143;-75
2021/11/21 10:23:15;;;;;;;8.65;2.00;;;16.70;84.30;;;;;;5032065;28;20499;-76
2021/11/21 10:25:51;;;;;;;8.88;2.15;;;17.10;83.60;;;;;;5031884;28;20105;-76
2021/11/21 10:28:22;;;;;;;11.68;3.10;;;17.30;81.80;;;;;;5032113;28;20166;-75
2021/11/21 10:30:59;;;;;;;6.40;2.10;;;17.40;81.30;;;;;;5030138;28;20128;-75
2021/11/21 10:33:31;;;;;;;4.38;1.70;;;17.40;80.30;;;;;;5032070;28;20391;-77
2021/11/21 10:36:05;;;;;;;6.20;1.20;;;17.60;80.60;;;;;;5031758;28;20482;-76
2021/11/21 10:38:34;;;;;;;5.93;1.30;;;17.80;79.80;;;;;;5030478;28;20033;-77
2021/11/21 10:41:05;;;;;;;4.82;1.25;;;18.00;78.50;;;;;;5031728;28;20387;-77
2021/11/21 10:43:31;;;;;;;4.78;1.70;;;18.00;77.40;;;;;;5031550;28;20091;-77
2021/11/21 10:45:57;;;;;;;;;;;17.90;77.20;;;;;;5030512;28;20037;-75
2021/11/21 10:48:27;;;;;;;6.38;1.40;;;17.80;78.00;;;;;;5031382;28;19978;-77
2021/11/21 10:50:54;;;;;;;23.02;10.80;;;17.80;78.50;;;;;;5013622;28;20034;-77
2021/11/21 10:53:21;;;;;;;6.05;1.88;;;17.90;78.40;;;;;;5030178;28;20056;-77
2021/11/21 10:56:08;;;;;;;6.80;1.77;;;18.30;77.30;;;;;;5030063;28;20103;-76
2021/11/21 10:58:47;;;;;;;7.63;1.60;;;18.80;75.90;;;;;;5031539;28;20060;-77
2021/11/21 11:01:24;;;;;;;6.47;1.70;;;19.20;74.80;;;;;;5031208;28;20072;-77
2021/11/21 11:04:06;;;;;;;6.53;1.92;;;19.10;73.20;;;;;;5029711;28;20334;-78
2021/11/21 11:06:32;;;;;;;7.00;1.30;;;18.90;72.90;;;;;;5030861;28;20099;-78
2021/11/21 11:09:17;;;;;;;;;;;18.70;73.50;;;;;;5031463;28;20502;-77
2021/11/21 11:11:44;;;;;;;7.50;2.85;;;18.70;74.60;;;;;;5031254;28;19908;-78
2021/11/21 11:14:10;;;;;;;4.00;1.30;;;18.70;74.60;;;;;;5030836;28;20470;-77
2021/11/21 11:16:36;;;;;;;5.80;1.70;;;18.70;74.00;;;;;;5031048;28;20030;-76
2021/11/21 11:19:02;;;;;;;;;;;18.70;72.70;;;;;;5031450;28;20041;-76
2021/11/21 11:21:28;;;;;;;6.65;1.33;;;18.50;73.00;;;;;;5030579;28;20295;-77
2021/11/21 11:23:55;;;;;;;7.10;1.42;;;18.50;73.00;;;;;;5029490;28;20032;-80
2021/11/21 11:26:23;;;;;;;6.35;1.05;;;18.30;71.50;;;;;;5029428;28;20040;-77
2021/11/21 11:28:53;;;;;;;6.70;1.35;;;18.20;71.70;;;;;;5030866;28;20104;-78
2021/11/21 11:31:27;;;;;;;4.38;1.30;;;18.30;71.20;;;;;;5030627;28;20029;-77
2021/11/21 11:33:56;;;;;;;5.68;1.10;;;18.20;69.70;;;;;;5030395;28;20486;-78
2021/11/21 11:36:25;;;;;;;5.72;1.00;;;18.10;69.40;;;;;;5029073;28;20121;-76
2021/11/21 11:39:09;;;;;;;5.75;1.05;;;17.80;69.00;;;;;;5030625;28;20104;-77
2021/11/21 11:41:35;;;;;;;5.68;1.08;;;17.50;68.80;;;;;;5029172;28;20037;-78
2021/11/21 11:44:06;;;;;;;;;;;17.50;70.30;;;;;;5030794;28;20036;-78
2021/11/21 11:46:34;;;;;;;5.03;1.17;;;17.50;70.00;;;;;;5030396;28;19909;-78
2021/11/21 11:49:07;;;;;;;8.05;1.13;;;17.30;70.10;;;;;;5029428;28;20100;-76
2021/11/21 11:51:34;;;;;;;4.18;0.95;;;17.20;69.80;;;;;;5030445;28;20017;-76
2021/11/21 11:54:15;;;;;;;6.45;1.60;;;17.20;69.50;;;;;;5029874;28;20049;-78
2021/11/21 11:56:51;;;;;;;5.10;0.98;;;17.30;69.10;;;;;;5030010;28;20045;-76
2021/11/21 11:59:38;;;;;;;5.95;1.40;;;17.30;68.30;;;;;;5030108;28;20309;-76
2021/11/21 12:02:27;;;;;;;;;;;17.40;68.30;;;;;;5029247;28;20034;-77
2021/11/21 12:04:56;;;;;;;6.80;1.55;;;17.40;69.50;;;;;;5030497;28;19912;-76
2021/11/21 12:07:26;;;;;;;6.47;1.30;;;17.50;69.50;;;;;;5030159;28;20624;-76
2021/11/21 12:09:57;;;;;;;6.47;1.20;;;17.60;68.00;;;;;;5030070;28;20033;-77
2021/11/21 12:12:45;;;;;;;5.32;1.25;;;17.50;67.50;;;;;;5030264;28;20060;-75
2021/11/21 12:15:27;;;;;;;4.53;0.80;;;17.40;66.50;;;;;;5029957;28;20039;-76
2021/11/21 12:17:53;;;;;;;6.40;0.85;;;17.10;65.60;;;;;;5031791;28;20053;-76
2021/11/21 12:20:48;;;;;;;8.25;1.60;;;16.60;66.40;;;;;;5033939;28;20057;-76
2021/11/21 12:23:36;;;;;;;7.65;1.27;;;16.40;66.00;;;;;;5034109;28;20053;-76
2021/11/21 12:26:22;;;;;;;4.93;1.17;;;16.10;65.40;;;;;;5033768;28;20391;-77
2021/11/21 12:29:14;;;;;;;4.53;0.93;;;15.30;64.60;;;;;;5032646;28;20108;-76
2021/11/21 12:31:43;;;;;;;10.07;1.23;;;14.60;64.40;;;;;;5033534;28;20049;-77
2021/11/21 12:34:38;;;;;;;5.97;1.42;;;13.90;64.80;;;;;;5033664;28;20033;-77
2021/11/21 12:37:14;;;;;;;5.07;1.08;;;13.30;65.80;;;;;;5033468;28;20427;-77
2021/11/21 12:39:43;;;;;;;4.27;0.80;;;12.80;65.70;;;;;;5034142;28;20171;-76
2021/11/21 12:42:13;;;;;;;5.50;0.90;;;12.60;66.20;;;;;;5033459;28;20048;-78
2021/11/21 12:44:40;;;;;;;2.58;0.63;;;12.30;66.50;;;;;;5032315;28;20080;-78
2021/11/21 12:47:07;;;;;;;3.30;1.00;;;12.20;66.90;;;;;;5031543;28;20456;-76
2021/11/21 12:49:33;;;;;;;4.70;0.85;;;12.00;67.10;;;;;;5033179;28;20029;-76
2021/11/21 12:52:12;;;;;;;6.25;1.00;;;11.90;67.20;;;;;;5033240;28;20030;-76
2021/11/21 12:54:39;;;;;;;8.13;1.13;;;11.70;67.30;;;;;;5031487;28;20034;-78
2021/11/21 12:57:06;;;;;;;7.57;1.42;;;11.40;67.50;;;;;;5033043;28;20029;-77